sensor_id;sensor_type;location;lat;lon;timestamp;P1;durP1;ratioP1;P2;durP2;ratioP2
2035;SDS011;23642;42.658;23.350;2023-08-06T00:01:15;87.57;;;82.40;;
2035;SDS011;23642;42.658;23.350;2023-08-06T00:03:43;84.17;;;79.33;;
2035;SDS011;23642;42.658;23.350;2023-08-06T00:06:11;86.50;;;81.30;;
2035;SDS011;23642;42.658;23.350;2023-08-06T00:08:37;90.23;;;84.87;;
2035;SDS011;23642;42.658;23.350;2023-08-06T00:11:04;86.87;;;81.90;;
2035;SDS011;23642;42.658;23.350;2023-08-06T00:13:31;89.17;;;84.07;;
2035;SDS011;23642;42.658;23.350;2023-08-06T00:16:09;88.30;;;83.30;;
2035;SDS011;23642;42.658;23.350;2023-08-06T00:18:36;86.40;;;81.43;;
2035;SDS011;23642;42.658;23.350;2023-08-06T00:21:03;86.37;;;81.37;;
2035;SDS011;23642;42.658;23.350;2023-08-06T00:23:30;83.33;;;78.53;;
2035;SDS011;23642;42.658;23.350;2023-08-06T00:25:57;82.13;;;77.43;;
2035;SDS011;23642;42.658;23.350;2023-08-06T00:28:24;87.23;;;82.30;;
2035;SDS011;23642;42.658;23.350;2023-08-06T00:30:54;84.87;;;80.13;;
2035;SDS011;23642;42.658;23.350;2023-08-06T00:33:23;87.73;;;82.63;;
2035;SDS011;23642;42.658;23.350;2023-08-06T00:35:51;90.87;;;85.50;;
2035;SDS011;23642;42.658;23.350;2023-08-06T00:38:18;83.67;;;78.70;;
2035;SDS011;23642;42.658;23.350;2023-08-06T00:40:47;88.13;;;83.07;;
2035;SDS011;23642;42.658;23.350;2023-08-06T00:43:16;87.90;;;82.60;;
2035;SDS011;23642;42.658;23.350;2023-08-06T00:45:43;83.33;;;78.33;;
2035;SDS011;23642;42.658;23.350;2023-08-06T00:48:10;82.10;;;77.30;;
2035;SDS011;23642;42.658;23.350;2023-08-06T00:50:39;84.47;;;79.47;;
2035;SDS011;23642;42.658;23.350;2023-08-06T00:53:06;83.10;;;78.10;;
2035;SDS011;23642;42.658;23.350;2023-08-06T00:55:36;86.37;;;81.27;;
2035;SDS011;23642;42.658;23.350;2023-08-06T00:58:03;86.37;;;81.07;;
2035;SDS011;23642;42.658;23.350;2023-08-06T01:00:34;84.13;;;79.20;;
2035;SDS011;23642;42.658;23.350;2023-08-06T01:03:08;84.50;;;79.43;;
2035;SDS011;23642;42.658;23.350;2023-08-06T01:05:38;83.80;;;78.80;;
2035;SDS011;23642;42.658;23.350;2023-08-06T01:08:09;82.30;;;77.30;;
2035;SDS011;23642;42.658;23.350;2023-08-06T01:11:01;84.83;;;79.50;;
2035;SDS011;23642;42.658;23.350;2023-08-06T01:13:42;81.47;;;76.40;;
2035;SDS011;23642;42.658;23.350;2023-08-06T01:16:14;82.63;;;77.43;;
2035;SDS011;23642;42.658;23.350;2023-08-06T01:18:46;83.10;;;77.90;;
2035;SDS011;23642;42.658;23.350;2023-08-06T01:21:17;85.10;;;79.70;;
2035;SDS011;23642;42.658;23.350;2023-08-06T01:23:45;86.73;;;81.30;;
2035;SDS011;23642;42.658;23.350;2023-08-06T01:26:14;84.70;;;79.30;;
2035;SDS011;23642;42.658;23.350;2023-08-06T01:28:48;80.77;;;75.67;;
2035;SDS011;23642;42.658;23.350;2023-08-06T01:31:26;81.33;;;76.13;;
2035;SDS011;23642;42.658;23.350;2023-08-06T01:33:58;84.43;;;79.13;;
2035;SDS011;23642;42.658;23.350;2023-08-06T01:36:29;81.23;;;75.97;;
2035;SDS011;23642;42.658;23.350;2023-08-06T01:38:57;80.77;;;75.37;;
2035;SDS011;23642;42.658;23.350;2023-08-06T01:41:24;84.07;;;78.33;;
2035;SDS011;23642;42.658;23.350;2023-08-06T01:43:51;85.23;;;79.83;;
2035;SDS011;23642;42.658;23.350;2023-08-06T01:46:18;86.60;;;80.90;;
2035;SDS011;23642;42.658;23.350;2023-08-06T01:48:45;84.90;;;79.40;;
2035;SDS011;23642;42.658;23.350;2023-08-06T01:51:12;87.23;;;81.33;;
2035;SDS011;23642;42.658;23.350;2023-08-06T01:53:41;86.23;;;80.27;;
2035;SDS011;23642;42.658;23.350;2023-08-06T01:56:10;87.70;;;81.90;;
2035;SDS011;23642;42.658;23.350;2023-08-06T01:58:38;86.00;;;79.97;;
2035;SDS011;23642;42.658;23.350;2023-08-06T02:01:08;84.77;;;79.07;;
2035;SDS011;23642;42.658;23.350;2023-08-06T02:03:37;87.20;;;81.47;;
2035;SDS011;23642;42.658;23.350;2023-08-06T02:06:04;85.60;;;79.90;;
2035;SDS011;23642;42.658;23.350;2023-08-06T02:08:35;87.03;;;81.27;;
2035;SDS011;23642;42.658;23.350;2023-08-06T02:11:05;82.90;;;77.43;;
2035;SDS011;23642;42.658;23.350;2023-08-06T02:13:35;85.00;;;79.30;;
2035;SDS011;23642;42.658;23.350;2023-08-06T02:16:02;83.80;;;77.90;;
2035;SDS011;23642;42.658;23.350;2023-08-06T02:18:30;83.00;;;77.50;;
2035;SDS011;23642;42.658;23.350;2023-08-06T02:20:59;82.60;;;77.10;;
2035;SDS011;23642;42.658;23.350;2023-08-06T02:23:27;82.70;;;77.40;;
2035;SDS011;23642;42.658;23.350;2023-08-06T02:25:57;83.13;;;77.90;;
2035;SDS011;23642;42.658;23.350;2023-08-06T02:28:26;86.10;;;80.60;;
2035;SDS011;23642;42.658;23.350;2023-08-06T02:30:53;85.90;;;80.40;;
2035;SDS011;23642;42.658;23.350;2023-08-06T02:33:20;80.80;;;75.70;;
2035;SDS011;23642;42.658;23.350;2023-08-06T02:35:47;79.07;;;73.97;;
2035;SDS011;23642;42.658;23.350;2023-08-06T02:38:14;78.30;;;73.40;;
2035;SDS011;23642;42.658;23.350;2023-08-06T02:40:44;77.23;;;72.23;;
2035;SDS011;23642;42.658;23.350;2023-08-06T02:43:12;73.37;;;67.93;;
2035;SDS011;23642;42.658;23.350;2023-08-06T02:45:41;73.87;;;68.77;;
2035;SDS011;23642;42.658;23.350;2023-08-06T02:48:07;72.63;;;68.10;;
2035;SDS011;23642;42.658;23.350;2023-08-06T02:50:38;74.93;;;70.40;;
2035;SDS011;23642;42.658;23.350;2023-08-06T02:53:06;75.57;;;71.07;;
2035;SDS011;23642;42.658;23.350;2023-08-06T02:55:33;73.60;;;69.20;;
2035;SDS011;23642;42.658;23.350;2023-08-06T02:58:00;69.77;;;65.50;;
2035;SDS011;23642;42.658;23.350;2023-08-06T03:00:27;70.03;;;65.93;;
2035;SDS011;23642;42.658;23.350;2023-08-06T03:02:55;70.33;;;65.83;;
2035;SDS011;23642;42.658;23.350;2023-08-06T03:05:25;68.47;;;64.27;;
2035;SDS011;23642;42.658;23.350;2023-08-06T03:07:53;67.23;;;63.23;;
2035;SDS011;23642;42.658;23.350;2023-08-06T03:10:19;68.10;;;63.90;;
2035;SDS011;23642;42.658;23.350;2023-08-06T03:12:49;69.13;;;64.93;;
2035;SDS011;23642;42.658;23.350;2023-08-06T03:15:16;68.10;;;64.10;;
2035;SDS011;23642;42.658;23.350;2023-08-06T03:17:43;67.57;;;63.63;;
2035;SDS011;23642;42.658;23.350;2023-08-06T03:20:14;68.40;;;64.23;;
2035;SDS011;23642;42.658;23.350;2023-08-06T03:22:41;70.50;;;66.40;;
2035;SDS011;23642;42.658;23.350;2023-08-06T03:25:08;70.57;;;66.37;;
2035;SDS011;23642;42.658;23.350;2023-08-06T03:27:35;66.47;;;62.67;;
2035;SDS011;23642;42.658;23.350;2023-08-06T03:30:02;65.97;;;61.97;;
2035;SDS011;23642;42.658;23.350;2023-08-06T03:32:29;67.13;;;63.03;;
2035;SDS011;23642;42.658;23.350;2023-08-06T03:34:56;64.57;;;60.73;;
2035;SDS011;23642;42.658;23.350;2023-08-06T03:37:25;65.53;;;61.73;;
2035;SDS011;23642;42.658;23.350;2023-08-06T03:39:52;66.60;;;62.70;;
2035;SDS011;23642;42.658;23.350;2023-08-06T03:42:19;68.47;;;64.47;;
2035;SDS011;23642;42.658;23.350;2023-08-06T03:44:46;69.50;;;65.43;;
2035;SDS011;23642;42.658;23.350;2023-08-06T03:47:16;68.67;;;64.57;;
2035;SDS011;23642;42.658;23.350;2023-08-06T03:49:43;68.23;;;64.23;;
2035;SDS011;23642;42.658;23.350;2023-08-06T03:52:19;65.73;;;61.87;;
2035;SDS011;23642;42.658;23.350;2023-08-06T03:54:53;66.90;;;62.80;;
2035;SDS011;23642;42.658;23.350;2023-08-06T03:57:20;64.57;;;60.87;;
2035;SDS011;23642;42.658;23.350;2023-08-06T03:59:50;64.07;;;60.37;;
2035;SDS011;23642;42.658;23.350;2023-08-06T04:02:17;66.80;;;62.90;;
2035;SDS011;23642;42.658;23.350;2023-08-06T04:04:48;66.37;;;62.17;;
2035;SDS011;23642;42.658;23.350;2023-08-06T04:07:15;65.97;;;61.97;;
2035;SDS011;23642;42.658;23.350;2023-08-06T04:09:58;65.60;;;61.60;;
2035;SDS011;23642;42.658;23.350;2023-08-06T04:12:26;66.50;;;62.23;;
2035;SDS011;23642;42.658;23.350;2023-08-06T04:14:57;64.20;;;60.03;;
2035;SDS011;23642;42.658;23.350;2023-08-06T04:17:25;65.63;;;61.43;;
2035;SDS011;23642;42.658;23.350;2023-08-06T04:19:53;69.37;;;65.07;;
2035;SDS011;23642;42.658;23.350;2023-08-06T04:22:23;70.40;;;66.10;;
2035;SDS011;23642;42.658;23.350;2023-08-06T04:24:51;70.97;;;66.57;;
2035;SDS011;23642;42.658;23.350;2023-08-06T04:27:19;71.80;;;67.13;;
2035;SDS011;23642;42.658;23.350;2023-08-06T04:29:46;68.30;;;63.90;;
2035;SDS011;23642;42.658;23.350;2023-08-06T04:32:16;69.60;;;65.00;;
2035;SDS011;23642;42.658;23.350;2023-08-06T04:34:44;69.97;;;65.47;;
2035;SDS011;23642;42.658;23.350;2023-08-06T04:37:12;70.57;;;66.17;;
2035;SDS011;23642;42.658;23.350;2023-08-06T04:39:39;70.93;;;66.43;;
2035;SDS011;23642;42.658;23.350;2023-08-06T04:42:06;70.67;;;66.17;;
2035;SDS011;23642;42.658;23.350;2023-08-06T04:44:34;74.13;;;69.23;;
2035;SDS011;23642;42.658;23.350;2023-08-06T04:47:02;73.77;;;68.87;;
2035;SDS011;23642;42.658;23.350;2023-08-06T04:49:29;75.10;;;70.20;;
2035;SDS011;23642;42.658;23.350;2023-08-06T04:52:06;75.83;;;70.73;;
2035;SDS011;23642;42.658;23.350;2023-08-06T04:54:33;77.50;;;72.30;;
2035;SDS011;23642;42.658;23.350;2023-08-06T04:57:00;79.00;;;73.80;;
2035;SDS011;23642;42.658;23.350;2023-08-06T04:59:31;78.00;;;72.70;;
2035;SDS011;23642;42.658;23.350;2023-08-06T05:01:59;78.20;;;72.77;;
2035;SDS011;23642;42.658;23.350;2023-08-06T05:04:26;82.03;;;76.53;;
2035;SDS011;23642;42.658;23.350;2023-08-06T05:06:53;82.70;;;77.20;;
2035;SDS011;23642;42.658;23.350;2023-08-06T05:09:20;83.57;;;78.07;;
2035;SDS011;23642;42.658;23.350;2023-08-06T05:11:48;88.30;;;82.10;;
2035;SDS011;23642;42.658;23.350;2023-08-06T05:14:18;86.40;;;80.50;;
2035;SDS011;23642;42.658;23.350;2023-08-06T05:16:45;90.37;;;84.27;;
2035;SDS011;23642;42.658;23.350;2023-08-06T05:19:14;94.87;;;88.30;;
2035;SDS011;23642;42.658;23.350;2023-08-06T05:21:41;98.60;;;91.77;;
2035;SDS011;23642;42.658;23.350;2023-08-06T05:24:09;94.23;;;87.73;;
2035;SDS011;23642;42.658;23.350;2023-08-06T05:26:37;92.80;;;86.40;;
2035;SDS011;23642;42.658;23.350;2023-08-06T05:29:04;90.63;;;84.23;;
2035;SDS011;23642;42.658;23.350;2023-08-06T05:31:31;93.27;;;86.13;;
2035;SDS011;23642;42.658;23.350;2023-08-06T05:33:58;94.60;;;88.07;;
2035;SDS011;23642;42.658;23.350;2023-08-06T05:36:28;94.43;;;87.63;;
2035;SDS011;23642;42.658;23.350;2023-08-06T05:38:55;88.13;;;81.93;;
2035;SDS011;23642;42.658;23.350;2023-08-06T05:41:33;94.37;;;87.67;;
2035;SDS011;23642;42.658;23.350;2023-08-06T05:44:07;91.70;;;85.20;;
2035;SDS011;23642;42.658;23.350;2023-08-06T05:46:34;94.80;;;88.20;;
2035;SDS011;23642;42.658;23.350;2023-08-06T05:49:02;94.17;;;87.27;;
2035;SDS011;23642;42.658;23.350;2023-08-06T05:51:41;93.10;;;86.50;;
2035;SDS011;23642;42.658;23.350;2023-08-06T05:54:08;99.53;;;92.50;;
2035;SDS011;23642;42.658;23.350;2023-08-06T05:56:35;98.33;;;91.43;;
2035;SDS011;23642;42.658;23.350;2023-08-06T05:59:02;101.27;;;93.97;;
2035;SDS011;23642;42.658;23.350;2023-08-06T06:01:32;101.37;;;94.47;;
2035;SDS011;23642;42.658;23.350;2023-08-06T06:04:02;89.10;;;83.10;;
2035;SDS011;23642;42.658;23.350;2023-08-06T06:06:31;89.73;;;83.73;;
2035;SDS011;23642;42.658;23.350;2023-08-06T06:09:10;88.03;;;82.20;;
2035;SDS011;23642;42.658;23.350;2023-08-06T06:11:36;84.20;;;78.60;;
2035;SDS011;23642;42.658;23.350;2023-08-06T06:14:05;87.73;;;81.80;;
2035;SDS011;23642;42.658;23.350;2023-08-06T06:16:43;92.07;;;85.87;;
2035;SDS011;23642;42.658;23.350;2023-08-06T06:19:10;92.33;;;86.20;;
2035;SDS011;23642;42.658;23.350;2023-08-06T06:21:42;93.37;;;87.10;;
2035;SDS011;23642;42.658;23.350;2023-08-06T06:24:10;92.40;;;86.20;;
2035;SDS011;23642;42.658;23.350;2023-08-06T06:26:38;91.10;;;85.07;;
2035;SDS011;23642;42.658;23.350;2023-08-06T06:29:12;91.20;;;85.17;;
2035;SDS011;23642;42.658;23.350;2023-08-06T06:31:42;89.30;;;83.20;;
2035;SDS011;23642;42.658;23.350;2023-08-06T06:34:09;87.57;;;81.87;;
2035;SDS011;23642;42.658;23.350;2023-08-06T06:36:40;87.60;;;82.00;;
2035;SDS011;23642;42.658;23.350;2023-08-06T06:39:28;88.40;;;82.53;;
2035;SDS011;23642;42.658;23.350;2023-08-06T06:42:00;90.67;;;84.37;;
2035;SDS011;23642;42.658;23.350;2023-08-06T06:44:32;89.30;;;83.57;;
2035;SDS011;23642;42.658;23.350;2023-08-06T06:47:01;87.97;;;82.27;;
2035;SDS011;23642;42.658;23.350;2023-08-06T06:49:43;89.80;;;83.90;;
2035;SDS011;23642;42.658;23.350;2023-08-06T06:55:19;90.40;;;84.60;;
2035;SDS011;23642;42.658;23.350;2023-08-06T06:58:20;86.80;;;81.20;;
2035;SDS011;23642;42.658;23.350;2023-08-06T07:01:06;89.37;;;83.57;;
2035;SDS011;23642;42.658;23.350;2023-08-06T07:03:56;88.57;;;82.73;;
2035;SDS011;23642;42.658;23.350;2023-08-06T07:06:40;88.33;;;82.60;;
2035;SDS011;23642;42.658;23.350;2023-08-06T07:12:18;92.20;;;86.30;;
2035;SDS011;23642;42.658;23.350;2023-08-06T07:14:49;91.37;;;85.57;;
2035;SDS011;23642;42.658;23.350;2023-08-06T07:17:25;91.30;;;85.50;;
2035;SDS011;23642;42.658;23.350;2023-08-06T07:19:52;92.43;;;86.63;;
2035;SDS011;23642;42.658;23.350;2023-08-06T07:22:53;93.20;;;87.30;;
2035;SDS011;23642;42.658;23.350;2023-08-06T07:25:57;93.50;;;87.60;;
2035;SDS011;23642;42.658;23.350;2023-08-06T07:28:40;90.83;;;85.13;;
2035;SDS011;23642;42.658;23.350;2023-08-06T07:31:09;93.93;;;88.03;;
2035;SDS011;23642;42.658;23.350;2023-08-06T07:33:40;92.43;;;86.53;;
2035;SDS011;23642;42.658;23.350;2023-08-06T07:36:20;92.73;;;86.93;;
2035;SDS011;23642;42.658;23.350;2023-08-06T07:39:01;93.20;;;87.40;;
2035;SDS011;23642;42.658;23.350;2023-08-06T07:42:02;91.70;;;86.00;;
2035;SDS011;23642;42.658;23.350;2023-08-06T07:44:49;94.17;;;88.00;;
2035;SDS011;23642;42.658;23.350;2023-08-06T07:48:11;93.93;;;87.90;;
2035;SDS011;23642;42.658;23.350;2023-08-06T07:50:46;90.97;;;84.83;;
2035;SDS011;23642;42.658;23.350;2023-08-06T07:53:18;93.83;;;87.93;;
2035;SDS011;23642;42.658;23.350;2023-08-06T07:56:06;91.37;;;85.77;;
2035;SDS011;23642;42.658;23.350;2023-08-06T07:58:41;92.47;;;86.57;;
2035;SDS011;23642;42.658;23.350;2023-08-06T08:01:08;93.40;;;87.60;;
2035;SDS011;23642;42.658;23.350;2023-08-06T08:03:37;93.40;;;86.70;;
2035;SDS011;23642;42.658;23.350;2023-08-06T08:06:18;94.00;;;88.10;;
2035;SDS011;23642;42.658;23.350;2023-08-06T08:09:05;92.47;;;86.77;;
2035;SDS011;23642;42.658;23.350;2023-08-06T08:11:39;93.30;;;87.40;;
2035;SDS011;23642;42.658;23.350;2023-08-06T08:14:11;92.40;;;86.70;;
2035;SDS011;23642;42.658;23.350;2023-08-06T08:16:38;91.67;;;86.07;;
2035;SDS011;23642;42.658;23.350;2023-08-06T08:19:08;92.77;;;87.07;;
2035;SDS011;23642;42.658;23.350;2023-08-06T08:21:39;91.70;;;86.03;;
2035;SDS011;23642;42.658;23.350;2023-08-06T08:24:07;92.40;;;86.60;;
2035;SDS011;23642;42.658;23.350;2023-08-06T08:26:40;93.23;;;87.53;;
2035;SDS011;23642;42.658;23.350;2023-08-06T08:29:14;91.47;;;85.77;;
2035;SDS011;23642;42.658;23.350;2023-08-06T08:31:48;92.57;;;86.87;;
2035;SDS011;23642;42.658;23.350;2023-08-06T08:34:19;92.90;;;87.27;;
2035;SDS011;23642;42.658;23.350;2023-08-06T08:36:51;92.97;;;87.27;;
2035;SDS011;23642;42.658;23.350;2023-08-06T08:39:20;90.63;;;85.10;;
2035;SDS011;23642;42.658;23.350;2023-08-06T08:42:02;91.17;;;85.57;;
2035;SDS011;23642;42.658;23.350;2023-08-06T08:44:32;92.73;;;86.83;;
2035;SDS011;23642;42.658;23.350;2023-08-06T08:47:10;92.80;;;87.10;;
2035;SDS011;23642;42.658;23.350;2023-08-06T08:49:39;91.70;;;86.00;;
2035;SDS011;23642;42.658;23.350;2023-08-06T08:52:09;90.40;;;84.73;;
2035;SDS011;23642;42.658;23.350;2023-08-06T08:54:41;92.97;;;87.27;;
2035;SDS011;23642;42.658;23.350;2023-08-06T08:57:19;92.80;;;87.00;;
2035;SDS011;23642;42.658;23.350;2023-08-06T08:59:59;91.93;;;86.13;;
2035;SDS011;23642;42.658;23.350;2023-08-06T09:05:52;94.47;;;88.60;;
2035;SDS011;23642;42.658;23.350;2023-08-06T09:11:33;93.03;;;87.30;;
2035;SDS011;23642;42.658;23.350;2023-08-06T09:14:18;90.50;;;85.00;;
2035;SDS011;23642;42.658;23.350;2023-08-06T09:17:01;92.77;;;86.93;;
2035;SDS011;23642;42.658;23.350;2023-08-06T09:19:52;92.40;;;86.67;;
2035;SDS011;23642;42.658;23.350;2023-08-06T09:22:28;92.63;;;86.93;;
2035;SDS011;23642;42.658;23.350;2023-08-06T09:25:33;93.70;;;87.90;;
2035;SDS011;23642;42.658;23.350;2023-08-06T09:32:03;94.37;;;88.47;;
2035;SDS011;23642;42.658;23.350;2023-08-06T11:11:26;93.43;;;87.83;;
2035;SDS011;23642;42.658;23.350;2023-08-06T11:43:46;93.53;;;87.80;;
2035;SDS011;23642;42.658;23.350;2023-08-06T11:47:05;94.80;;;88.67;;
2035;SDS011;23642;42.658;23.350;2023-08-06T11:49:51;92.40;;;86.70;;
2035;SDS011;23642;42.658;23.350;2023-08-06T11:56:56;93.90;;;88.20;;
2035;SDS011;23642;42.658;23.350;2023-08-06T12:06:17;93.33;;;87.30;;
2035;SDS011;23642;42.658;23.350;2023-08-06T12:13:10;92.03;;;86.43;;
2035;SDS011;23642;42.658;23.350;2023-08-06T12:50:09;95.50;;;89.70;;
2035;SDS011;23642;42.658;23.350;2023-08-06T12:53:18;93.87;;;88.07;;
2035;SDS011;23642;42.658;23.350;2023-08-06T13:05:04;96.03;;;90.07;;
2035;SDS011;23642;42.658;23.350;2023-08-06T14:10:38;96.50;;;90.50;;
2035;SDS011;23642;42.658;23.350;2023-08-06T14:13:30;95.83;;;90.10;;
2035;SDS011;23642;42.658;23.350;2023-08-06T14:47:41;96.83;;;90.97;;
2035;SDS011;23642;42.658;23.350;2023-08-06T14:51:12;95.67;;;89.90;;
2035;SDS011;23642;42.658;23.350;2023-08-06T14:54:52;92.47;;;86.87;;
2035;SDS011;23642;42.658;23.350;2023-08-06T14:58:37;95.17;;;89.37;;
2035;SDS011;23642;42.658;23.350;2023-08-06T15:04:33;95.40;;;89.63;;
2035;SDS011;23642;42.658;23.350;2023-08-06T15:07:51;97.40;;;91.60;;
2035;SDS011;23642;42.658;23.350;2023-08-06T15:34:24;96.93;;;91.13;;
2035;SDS011;23642;42.658;23.350;2023-08-06T15:37:26;97.87;;;91.67;;
2035;SDS011;23642;42.658;23.350;2023-08-06T15:42:12;96.47;;;90.57;;
2035;SDS011;23642;42.658;23.350;2023-08-06T15:43:47;95.80;;;89.93;;
2035;SDS011;23642;42.658;23.350;2023-08-06T15:46:32;94.80;;;89.13;;
2035;SDS011;23642;42.658;23.350;2023-08-06T15:53:06;96.87;;;90.93;;
2035;SDS011;23642;42.658;23.350;2023-08-06T15:55:43;96.53;;;90.73;;
2035;SDS011;23642;42.658;23.350;2023-08-06T17:26:46;89.13;;;83.67;;
2035;SDS011;23642;42.658;23.350;2023-08-06T17:32:43;85.77;;;80.37;;
2035;SDS011;23642;42.658;23.350;2023-08-06T17:42:27;86.83;;;81.43;;
2035;SDS011;23642;42.658;23.350;2023-08-06T17:48:59;85.03;;;79.70;;
2035;SDS011;23642;42.658;23.350;2023-08-06T18:08:52;86.70;;;81.30;;
2035;SDS011;23642;42.658;23.350;2023-08-06T18:16:00;86.93;;;81.47;;
2035;SDS011;23642;42.658;23.350;2023-08-06T18:22:53;84.17;;;78.97;;
2035;SDS011;23642;42.658;23.350;2023-08-06T18:42:16;85.10;;;79.90;;
2035;SDS011;23642;42.658;23.350;2023-08-06T18:45:39;86.87;;;81.50;;
2035;SDS011;23642;42.658;23.350;2023-08-06T18:48:56;86.67;;;81.27;;
2035;SDS011;23642;42.658;23.350;2023-08-06T19:08:57;85.60;;;80.30;;
2035;SDS011;23642;42.658;23.350;2023-08-06T19:12:04;84.87;;;79.57;;
2035;SDS011;23642;42.658;23.350;2023-08-06T19:14:51;89.53;;;83.80;;
2035;SDS011;23642;42.658;23.350;2023-08-06T19:17:58;80.33;;;75.20;;
2035;SDS011;23642;42.658;23.350;2023-08-06T19:20:54;83.60;;;78.50;;
2035;SDS011;23642;42.658;23.350;2023-08-06T19:23:48;84.20;;;78.90;;
2035;SDS011;23642;42.658;23.350;2023-08-06T19:26:52;84.10;;;79.00;;
2035;SDS011;23642;42.658;23.350;2023-08-06T19:32:00;83.47;;;78.27;;
2035;SDS011;23642;42.658;23.350;2023-08-06T19:33:16;84.73;;;79.47;;
2035;SDS011;23642;42.658;23.350;2023-08-06T19:36:05;85.33;;;80.03;;
2035;SDS011;23642;42.658;23.350;2023-08-06T19:38:34;84.73;;;79.47;;
2035;SDS011;23642;42.658;23.350;2023-08-06T19:41:06;84.10;;;78.80;;
2035;SDS011;23642;42.658;23.350;2023-08-06T19:43:36;87.83;;;80.10;;
2035;SDS011;23642;42.658;23.350;2023-08-06T19:46:03;85.20;;;79.23;;
2035;SDS011;23642;42.658;23.350;2023-08-06T19:48:36;83.10;;;78.10;;
2035;SDS011;23642;42.658;23.350;2023-08-06T19:51:03;82.83;;;77.83;;
2035;SDS011;23642;42.658;23.350;2023-08-06T19:53:31;85.13;;;79.60;;
2035;SDS011;23642;42.658;23.350;2023-08-06T19:55:59;84.90;;;79.50;;
2035;SDS011;23642;42.658;23.350;2023-08-06T19:58:32;85.17;;;79.97;;
2035;SDS011;23642;42.658;23.350;2023-08-06T20:01:00;84.80;;;79.70;;
2035;SDS011;23642;42.658;23.350;2023-08-06T20:03:31;83.73;;;78.73;;
2035;SDS011;23642;42.658;23.350;2023-08-06T20:05:59;85.70;;;80.60;;
2035;SDS011;23642;42.658;23.350;2023-08-06T20:08:28;84.10;;;78.93;;
2035;SDS011;23642;42.658;23.350;2023-08-06T20:10:55;85.03;;;79.83;;
2035;SDS011;23642;42.658;23.350;2023-08-06T20:13:22;83.47;;;78.27;;
2035;SDS011;23642;42.658;23.350;2023-08-06T20:15:51;86.20;;;80.90;;
2035;SDS011;23642;42.658;23.350;2023-08-06T20:18:19;87.67;;;82.37;;
2035;SDS011;23642;42.658;23.350;2023-08-06T20:20:51;87.00;;;81.70;;
2035;SDS011;23642;42.658;23.350;2023-08-06T20:23:18;88.20;;;82.83;;
2035;SDS011;23642;42.658;23.350;2023-08-06T20:25:49;89.90;;;84.40;;
2035;SDS011;23642;42.658;23.350;2023-08-06T20:28:16;85.07;;;79.77;;
2035;SDS011;23642;42.658;23.350;2023-08-06T20:30:43;85.33;;;79.93;;
2035;SDS011;23642;42.658;23.350;2023-08-06T20:33:12;84.07;;;78.77;;
2035;SDS011;23642;42.658;23.350;2023-08-06T20:35:41;87.90;;;82.30;;
2035;SDS011;23642;42.658;23.350;2023-08-06T20:38:17;88.27;;;82.77;;
2035;SDS011;23642;42.658;23.350;2023-08-06T20:40:47;88.67;;;83.23;;
2035;SDS011;23642;42.658;23.350;2023-08-06T20:43:14;87.40;;;81.90;;
2035;SDS011;23642;42.658;23.350;2023-08-06T20:45:42;86.67;;;81.27;;
2035;SDS011;23642;42.658;23.350;2023-08-06T20:48:09;86.10;;;80.67;;
2035;SDS011;23642;42.658;23.350;2023-08-06T20:50:40;86.67;;;81.37;;
2035;SDS011;23642;42.658;23.350;2023-08-06T20:53:07;87.93;;;82.53;;
2035;SDS011;23642;42.658;23.350;2023-08-06T20:55:34;87.13;;;81.73;;
2035;SDS011;23642;42.658;23.350;2023-08-06T20:58:01;85.97;;;80.67;;
2035;SDS011;23642;42.658;23.350;2023-08-06T21:00:28;86.73;;;81.33;;
2035;SDS011;23642;42.658;23.350;2023-08-06T21:02:55;86.20;;;80.90;;
2035;SDS011;23642;42.658;23.350;2023-08-06T21:05:22;87.87;;;82.47;;
2035;SDS011;23642;42.658;23.350;2023-08-06T21:07:53;84.90;;;79.70;;
2035;SDS011;23642;42.658;23.350;2023-08-06T21:10:21;85.80;;;80.50;;
2035;SDS011;23642;42.658;23.350;2023-08-06T21:12:48;86.37;;;81.07;;
2035;SDS011;23642;42.658;23.350;2023-08-06T21:15:19;87.87;;;82.53;;
2035;SDS011;23642;42.658;23.350;2023-08-06T21:17:48;90.60;;;85.17;;
2035;SDS011;23642;42.658;23.350;2023-08-06T21:20:16;89.57;;;84.10;;
2035;SDS011;23642;42.658;23.350;2023-08-06T21:22:46;86.80;;;81.50;;
2035;SDS011;23642;42.658;23.350;2023-08-06T21:25:14;87.03;;;81.73;;
2035;SDS011;23642;42.658;23.350;2023-08-06T21:27:41;87.63;;;82.33;;
2035;SDS011;23642;42.658;23.350;2023-08-06T21:30:13;86.67;;;81.37;;
2035;SDS011;23642;42.658;23.350;2023-08-06T21:32:43;86.50;;;81.23;;
2035;SDS011;23642;42.658;23.350;2023-08-06T21:35:12;86.57;;;81.30;;
2035;SDS011;23642;42.658;23.350;2023-08-06T21:37:40;90.10;;;84.70;;
2035;SDS011;23642;42.658;23.350;2023-08-06T21:40:07;86.33;;;81.10;;
2035;SDS011;23642;42.658;23.350;2023-08-06T21:42:36;84.77;;;79.47;;
2035;SDS011;23642;42.658;23.350;2023-08-06T21:45:06;87.67;;;82.37;;
2035;SDS011;23642;42.658;23.350;2023-08-06T21:47:33;88.93;;;83.63;;
2035;SDS011;23642;42.658;23.350;2023-08-06T21:50:01;86.03;;;80.80;;
2035;SDS011;23642;42.658;23.350;2023-08-06T21:52:28;84.70;;;79.30;;
2035;SDS011;23642;42.658;23.350;2023-08-06T21:54:55;84.77;;;79.60;;
2035;SDS011;23642;42.658;23.350;2023-08-06T21:57:23;85.90;;;80.70;;
2035;SDS011;23642;42.658;23.350;2023-08-06T21:59:51;86.87;;;81.37;;
2035;SDS011;23642;42.658;23.350;2023-08-06T22:02:18;87.30;;;82.00;;
2035;SDS011;23642;42.658;23.350;2023-08-06T22:04:45;88.70;;;83.40;;
2035;SDS011;23642;42.658;23.350;2023-08-06T22:07:12;86.40;;;81.20;;
2035;SDS011;23642;42.658;23.350;2023-08-06T22:09:39;86.60;;;81.40;;
2035;SDS011;23642;42.658;23.350;2023-08-06T22:12:09;89.47;;;84.00;;
2035;SDS011;23642;42.658;23.350;2023-08-06T22:14:39;88.10;;;82.90;;
2035;SDS011;23642;42.658;23.350;2023-08-06T22:17:14;90.80;;;85.40;;
2035;SDS011;23642;42.658;23.350;2023-08-06T22:19:42;89.87;;;84.47;;
2035;SDS011;23642;42.658;23.350;2023-08-06T22:22:10;88.30;;;83.00;;
2035;SDS011;23642;42.658;23.350;2023-08-06T22:24:41;90.60;;;85.20;;
2035;SDS011;23642;42.658;23.350;2023-08-06T22:27:08;88.60;;;83.40;;
2035;SDS011;23642;42.658;23.350;2023-08-06T22:29:37;90.73;;;85.37;;
2035;SDS011;23642;42.658;23.350;2023-08-06T22:32:04;89.50;;;84.10;;
2035;SDS011;23642;42.658;23.350;2023-08-06T22:34:33;89.83;;;84.50;;
2035;SDS011;23642;42.658;23.350;2023-08-06T22:37:06;90.23;;;84.83;;
2035;SDS011;23642;42.658;23.350;2023-08-06T22:39:36;92.40;;;87.00;;
2035;SDS011;23642;42.658;23.350;2023-08-06T22:42:04;89.63;;;84.33;;
2035;SDS011;23642;42.658;23.350;2023-08-06T22:44:36;89.80;;;84.50;;
2035;SDS011;23642;42.658;23.350;2023-08-06T22:47:03;90.70;;;85.40;;
2035;SDS011;23642;42.658;23.350;2023-08-06T22:49:40;90.87;;;85.37;;
2035;SDS011;23642;42.658;23.350;2023-08-06T22:52:12;92.47;;;87.07;;
2035;SDS011;23642;42.658;23.350;2023-08-06T22:54:46;88.37;;;83.07;;
2035;SDS011;23642;42.658;23.350;2023-08-06T22:57:13;92.23;;;86.73;;
2035;SDS011;23642;42.658;23.350;2023-08-06T22:59:47;91.47;;;86.07;;
2035;SDS011;23642;42.658;23.350;2023-08-06T23:02:26;92.97;;;87.47;;
2035;SDS011;23642;42.658;23.350;2023-08-06T23:05:04;89.60;;;84.20;;
2035;SDS011;23642;42.658;23.350;2023-08-06T23:07:34;90.47;;;85.17;;
2035;SDS011;23642;42.658;23.350;2023-08-06T23:10:07;90.90;;;85.50;;